createdAt,value
2023-05-14T00:00:08.325Z,6.32
2023-05-14T00:00:21.750Z,7.32
2023-05-14T00:00:33.612Z,11.13
2023-05-14T00:00:45.377Z,11.80
2023-05-14T00:00:57.115Z,12.75
2023-05-14T00:01:08.797Z,9.85
2023-05-14T00:01:20.559Z,7.75
2023-05-14T00:01:32.227Z,8.50
2023-05-14T00:01:43.940Z,8.98
2023-05-14T00:01:55.612Z,8.70
2023-05-14T00:02:07.371Z,9.18
2023-05-14T00:02:19.185Z,9.90
2023-05-14T00:02:31.060Z,10.50
2023-05-14T00:02:42.978Z,9.77
2023-05-14T00:02:55.053Z,9.20
2023-05-14T00:03:07.106Z,10.05
2023-05-14T00:03:19.046Z,7.85
2023-05-14T00:03:30.999Z,7.03
2023-05-14T00:03:42.854Z,9.05
2023-05-14T00:03:54.677Z,8.68
2023-05-14T00:04:06.540Z,8.25
2023-05-14T00:04:18.350Z,10.30
2023-05-14T00:04:30.155Z,12.43
2023-05-14T00:04:41.943Z,12.55
2023-05-14T00:04:53.608Z,7.68
2023-05-14T00:05:06.075Z,7.28
2023-05-14T00:05:17.740Z,7.57
2023-05-14T00:05:29.412Z,7.30
2023-05-14T00:05:41.186Z,6.78
2023-05-14T00:05:52.832Z,6.40
2023-05-14T00:06:04.998Z,4.50
2023-05-14T00:06:16.690Z,5.72
2023-05-14T00:06:28.420Z,8.32
2023-05-14T00:06:40.150Z,9.95
2023-05-14T00:06:51.824Z,8.85
2023-05-14T00:07:03.595Z,5.65
2023-05-14T00:07:15.338Z,6.45
2023-05-14T00:07:27.038Z,14.32
2023-05-14T00:07:38.716Z,15.38
2023-05-14T00:07:50.388Z,10.88
2023-05-14T00:08:02.532Z,9.38
2023-05-14T00:08:14.236Z,6.70
2023-05-14T00:08:25.938Z,5.40
2023-05-14T00:08:37.676Z,4.38
2023-05-14T00:08:49.424Z,5.03
2023-05-14T00:09:01.124Z,5.40
2023-05-14T00:09:13.192Z,5.88
2023-05-14T00:09:24.969Z,8.20
2023-05-14T00:09:36.669Z,16.45
2023-05-14T00:09:48.366Z,15.95
2023-05-14T00:10:00.385Z,18.83
2023-05-14T00:10:12.063Z,15.60
2023-05-14T00:10:23.949Z,15.90
2023-05-14T00:10:35.934Z,12.18
2023-05-14T00:10:47.652Z,6.47
2023-05-14T00:10:59.420Z,5.57
2023-05-14T00:11:11.103Z,6.03
2023-05-14T00:11:22.837Z,8.13
2023-05-14T00:11:34.526Z,7.53
2023-05-14T00:11:46.164Z,7.22
2023-05-14T00:11:57.908Z,8.00
2023-05-14T00:12:09.871Z,10.73
2023-05-14T00:12:21.576Z,11.32
2023-05-14T00:12:33.371Z,9.57
2023-05-14T00:12:45.078Z,6.80
2023-05-14T00:12:56.792Z,5.38
2023-05-14T00:13:08.757Z,6.18
2023-05-14T00:13:20.434Z,6.78
2023-05-14T00:13:32.138Z,7.30
2023-05-14T00:13:43.847Z,6.93
2023-05-14T00:13:55.554Z,8.13
2023-05-14T00:14:07.249Z,8.20
2023-05-14T00:14:20.269Z,7.00
2023-05-14T00:14:31.967Z,7.53
2023-05-14T00:14:43.641Z,8.15
2023-05-14T00:14:55.460Z,6.60
2023-05-14T00:15:08.636Z,6.50
2023-05-14T00:15:20.352Z,7.65
2023-05-14T00:15:34.076Z,8.02
2023-05-14T00:15:46.220Z,8.07
2023-05-14T00:15:57.970Z,8.45
2023-05-14T00:16:09.803Z,9.02
2023-05-14T00:16:21.617Z,10.35
2023-05-14T00:16:33.410Z,7.15
2023-05-14T00:16:45.150Z,5.95
2023-05-14T00:16:56.852Z,5.13
2023-05-14T00:17:08.522Z,4.28
2023-05-14T00:17:20.295Z,4.43
2023-05-14T00:17:32.006Z,4.78
2023-05-14T00:17:43.819Z,6.15
2023-05-14T00:17:55.639Z,9.25
2023-05-14T00:18:07.412Z,11.93
2023-05-14T00:18:19.310Z,15.57
2023-05-14T00:18:31.162Z,11.23
2023-05-14T00:18:42.944Z,7.65
2023-05-14T00:18:54.694Z,6.30
2023-05-14T00:19:06.511Z,4.88
2023-05-14T00:19:18.391Z,4.75
2023-05-14T00:19:30.099Z,5.53
2023-05-14T00:19:41.880Z,6.38
2023-05-14T00:19:53.573Z,8.80
2023-05-14T00:20:06.354Z,8.55
2023-05-14T00:20:18.142Z,8.27
2023-05-14T00:20:30.235Z,7.70
2023-05-14T00:20:41.931Z,6.38
2023-05-14T00:20:53.689Z,7.07
2023-05-14T00:21:05.340Z,5.57
2023-05-14T00:21:16.976Z,7.18
2023-05-14T00:21:28.628Z,7.57
2023-05-14T00:21:40.454Z,7.68
2023-05-14T00:21:52.228Z,6.05
2023-05-14T00:22:03.951Z,6.22
2023-05-14T00:22:15.625Z,7.45
2023-05-14T00:22:27.334Z,9.68
2023-05-14T00:22:39.400Z,10.88
2023-05-14T00:22:51.070Z,10.55
2023-05-14T00:23:02.752Z,8.40
2023-05-14T00:23:14.386Z,7.35
2023-05-14T00:23:26.104Z,5.55
2023-05-14T00:23:37.746Z,5.47
2023-05-14T00:23:49.474Z,5.80
2023-05-14T00:24:01.182Z,6.32
2023-05-14T00:24:12.854Z,7.15
2023-05-14T00:24:24.551Z,8.57
2023-05-14T00:24:36.689Z,13.05
2023-05-14T00:24:48.355Z,13.23
2023-05-14T00:24:59.966Z,9.88
2023-05-14T00:25:11.633Z,7.65
2023-05-14T00:25:23.530Z,10.63
2023-05-14T00:25:36.606Z,12.85
2023-05-14T00:25:48.269Z,11.93
2023-05-14T00:26:00.073Z,9.45
2023-05-14T00:26:11.777Z,7.88
2023-05-14T00:26:23.769Z,6.95
2023-05-14T00:26:35.614Z,6.32
2023-05-14T00:26:47.338Z,5.10
2023-05-14T00:26:59.045Z,4.78
2023-05-14T00:27:10.705Z,5.22
2023-05-14T00:27:22.393Z,7.57
2023-05-14T00:27:34.120Z,6.90
2023-05-14T00:27:45.798Z,7.05
2023-05-14T00:27:57.547Z,7.22
2023-05-14T00:28:09.185Z,6.72
2023-05-14T00:28:21.172Z,8.55
2023-05-14T00:28:33.545Z,9.35
2023-05-14T00:28:45.226Z,8.43
2023-05-14T00:28:56.898Z,5.57
2023-05-14T00:29:08.601Z,5.40
2023-05-14T00:29:21.671Z,4.72
2023-05-14T00:29:33.340Z,6.68
2023-05-14T00:29:45.024Z,6.22
2023-05-14T00:29:56.752Z,8.90
2023-05-14T00:30:09.188Z,9.90
2023-05-14T00:30:20.975Z,10.20
2023-05-14T00:30:32.825Z,8.02
2023-05-14T00:30:44.624Z,7.43
2023-05-14T00:30:56.442Z,8.00
2023-05-14T00:31:08.233Z,10.68
2023-05-14T00:31:19.986Z,9.82
2023-05-14T00:31:31.790Z,8.90
2023-05-14T00:31:43.655Z,8.07
2023-05-14T00:31:55.433Z,8.02
2023-05-14T00:32:07.983Z,7.00
2023-05-14T00:32:19.725Z,6.05
2023-05-14T00:32:31.654Z,6.22
2023-05-14T00:32:43.443Z,6.25
2023-05-14T00:32:55.242Z,5.65
2023-05-14T00:33:07.155Z,7.22
2023-05-14T00:33:18.962Z,7.65
2023-05-14T00:33:30.778Z,6.60
2023-05-14T00:33:42.457Z,6.00
2023-05-14T00:33:54.156Z,7.13
2023-05-14T00:34:05.892Z,9.62
2023-05-14T00:34:17.640Z,8.48
2023-05-14T00:34:29.361Z,8.05
2023-05-14T00:34:41.669Z,8.27
2023-05-14T00:34:53.391Z,8.15
2023-05-14T00:35:05.891Z,9.02
2023-05-14T00:35:17.635Z,8.60
2023-05-14T00:35:29.365Z,6.20
2023-05-14T00:35:41.051Z,8.10
2023-05-14T00:35:52.777Z,8.20
2023-05-14T00:36:04.720Z,10.05
2023-05-14T00:36:16.543Z,9.25
2023-05-14T00:36:28.277Z,9.73
2023-05-14T00:36:40.159Z,6.20
2023-05-14T00:36:51.895Z,5.15
2023-05-14T00:37:03.632Z,4.75
2023-05-14T00:37:15.339Z,4.90
2023-05-14T00:37:27.088Z,6.57
2023-05-14T00:37:39.056Z,7.35
2023-05-14T00:37:50.733Z,7.07
2023-05-14T00:38:03.058Z,7.28
2023-05-14T00:38:14.920Z,6.45
2023-05-14T00:38:26.651Z,6.57
2023-05-14T00:38:38.373Z,5.20
2023-05-14T00:38:50.140Z,4.93
2023-05-14T00:39:01.873Z,5.97
2023-05-14T00:39:13.606Z,7.88
2023-05-14T00:39:25.331Z,13.80
2023-05-14T00:39:37.035Z,13.15
2023-05-14T00:39:48.772Z,10.10
2023-05-14T00:40:00.441Z,4.85
2023-05-14T00:40:12.852Z,6.85
2023-05-14T00:40:26.481Z,8.60
2023-05-14T00:40:38.344Z,8.25
2023-05-14T00:40:50.182Z,5.13
2023-05-14T00:41:01.890Z,4.78
2023-05-14T00:41:13.573Z,9.68
2023-05-14T00:41:26.258Z,10.88
2023-05-14T00:41:38.111Z,9.68
2023-05-14T00:41:49.850Z,4.90
2023-05-14T00:42:01.728Z,5.47
2023-05-14T00:42:13.399Z,7.30
2023-05-14T00:42:25.129Z,9.10
2023-05-14T00:42:37.055Z,8.50
2023-05-14T00:42:48.768Z,7.25
2023-05-14T00:43:00.487Z,7.72
2023-05-14T00:43:12.200Z,9.40
2023-05-14T00:43:24.218Z,7.30
2023-05-14T00:43:35.908Z,6.93
2023-05-14T00:43:47.683Z,7.03
2023-05-14T00:43:59.533Z,7.47
2023-05-14T00:44:11.232Z,7.20
2023-05-14T00:44:24.299Z,5.22
2023-05-14T00:44:36.056Z,5.45
2023-05-14T00:44:47.846Z,6.85
2023-05-14T00:44:59.587Z,6.13
2023-05-14T00:45:11.511Z,5.70
2023-05-14T00:45:23.218Z,6.80
2023-05-14T00:45:35.264Z,8.05
2023-05-14T00:45:48.334Z,6.47
2023-05-14T00:46:00.599Z,7.18
2023-05-14T00:46:12.421Z,7.63
2023-05-14T00:46:24.189Z,6.25
2023-05-14T00:46:36.058Z,6.15
2023-05-14T00:46:48.012Z,7.35
2023-05-14T00:47:00.115Z,7.40
2023-05-14T00:47:12.859Z,5.72
2023-05-14T00:47:24.698Z,6.85
2023-05-14T00:47:37.613Z,6.70
2023-05-14T00:47:49.539Z,5.82
2023-05-14T00:48:01.714Z,4.75
2023-05-14T00:48:14.044Z,5.05
2023-05-14T00:48:25.945Z,4.78
2023-05-14T00:48:37.837Z,10.25
2023-05-14T00:48:49.583Z,12.90
2023-05-14T00:49:01.601Z,11.18
2023-05-14T00:49:13.499Z,6.18
2023-05-14T00:49:25.598Z,6.53
2023-05-14T00:49:37.424Z,7.10
2023-05-14T00:49:49.209Z,6.35
2023-05-14T00:50:01.442Z,5.25
2023-05-14T00:50:14.801Z,6.50
2023-05-14T00:50:26.985Z,8.93
2023-05-14T00:50:38.997Z,9.40
2023-05-14T00:50:51.454Z,8.95
2023-05-14T00:51:03.471Z,7.13
2023-05-14T00:51:15.890Z,7.10
2023-05-14T00:51:27.767Z,5.88
2023-05-14T00:51:40.371Z,6.25
2023-05-14T00:51:52.821Z,8.82
2023-05-14T00:52:05.096Z,7.75
2023-05-14T00:52:17.761Z,10.63
2023-05-14T00:52:29.676Z,7.43
2023-05-14T00:52:42.066Z,5.05
2023-05-14T00:52:53.828Z,5.47
2023-05-14T00:53:05.597Z,6.85
2023-05-14T00:53:18.635Z,6.90
2023-05-14T00:53:31.377Z,10.57
2023-05-14T00:53:43.211Z,10.85
2023-05-14T00:53:55.364Z,6.43
2023-05-14T00:54:07.952Z,6.50
2023-05-14T00:54:20.762Z,7.00
2023-05-14T00:54:32.969Z,9.23
2023-05-14T00:54:46.496Z,9.02
2023-05-14T00:54:59.120Z,6.30
2023-05-14T00:55:15.023Z,6.30
2023-05-14T00:55:27.548Z,5.78
2023-05-14T00:55:59.642Z,5.47
2023-05-14T00:56:11.514Z,4.07
2023-05-14T00:56:23.731Z,4.05
2023-05-14T00:56:35.734Z,4.90
2023-05-14T00:56:48.265Z,5.07
2023-05-14T00:57:00.838Z,4.70
2023-05-14T00:57:12.590Z,5.43
2023-05-14T00:57:24.363Z,8.75
2023-05-14T00:57:36.865Z,9.90
2023-05-14T00:57:50.272Z,10.10
2023-05-14T00:58:04.403Z,6.57
2023-05-14T00:58:17.320Z,5.65
2023-05-14T00:58:29.401Z,7.22
2023-05-14T00:58:41.120Z,6.72
2023-05-14T00:58:52.843Z,6.63
2023-05-14T00:59:04.593Z,7.47
2023-05-14T00:59:16.446Z,8.05
2023-05-14T00:59:29.798Z,7.18
2023-05-14T00:59:41.764Z,5.85
2023-05-14T00:59:53.697Z,6.65
2023-05-14T01:00:06.885Z,7.38
2023-05-14T01:00:19.141Z,11.27
2023-05-14T01:00:30.898Z,10.40
2023-05-14T01:00:42.710Z,8.50
2023-05-14T01:00:54.608Z,6.88
2023-05-14T01:01:06.378Z,5.10
2023-05-14T01:01:18.203Z,4.68
2023-05-14T01:01:30.054Z,5.30
2023-05-14T01:01:42.309Z,7.72
2023-05-14T01:01:54.384Z,10.25
2023-05-14T01:02:06.393Z,9.30
2023-05-14T01:02:18.093Z,10.02
2023-05-14T01:02:29.929Z,12.05
2023-05-14T01:02:41.746Z,11.18
2023-05-14T01:02:53.865Z,9.88
2023-05-14T01:03:06.279Z,10.05
2023-05-14T01:03:18.149Z,7.68
2023-05-14T01:03:30.849Z,6.72
2023-05-14T01:03:43.376Z,6.22
2023-05-14T01:03:56.283Z,5.45
2023-05-14T01:04:10.380Z,5.07
2023-05-14T01:04:22.219Z,7.43
2023-05-14T01:04:34.386Z,9.60
2023-05-14T01:04:46.125Z,7.15
2023-05-14T01:04:58.126Z,4.85
2023-05-14T01:05:09.944Z,4.28
2023-05-14T01:05:25.887Z,6.00
2023-05-14T01:05:53.645Z,6.95
2023-05-14T01:06:13.107Z,5.60
2023-05-14T01:06:35.009Z,9.30
2023-05-14T01:06:55.135Z,7.40
2023-05-14T01:07:14.148Z,9.35
2023-05-14T01:07:33.494Z,12.73
2023-05-14T01:07:55.104Z,7.00
2023-05-14T01:08:13.257Z,12.40
2023-05-14T01:08:36.536Z,12.32
2023-05-14T01:09:01.399Z,7.90
2023-05-14T01:09:18.752Z,7.03
2023-05-14T01:09:42.511Z,9.23
2023-05-14T01:09:59.054Z,7.85
2023-05-14T01:10:15.405Z,7.70
2023-05-14T01:10:32.561Z,5.93
2023-05-14T01:10:51.112Z,6.88
2023-05-14T01:11:07.483Z,5.43
2023-05-14T01:11:22.400Z,8.30
2023-05-14T01:11:40.268Z,11.13
2023-05-14T01:11:59.472Z,7.90
2023-05-14T01:12:17.245Z,5.85
2023-05-14T01:12:34.451Z,6.22
2023-05-14T01:12:52.820Z,6.20
2023-05-14T01:13:11.106Z,8.00
2023-05-14T01:13:33.801Z,9.88
2023-05-14T01:13:55.430Z,8.07
2023-05-14T01:14:17.457Z,10.73
2023-05-14T01:14:36.510Z,8.15
2023-05-14T01:14:55.696Z,7.20
2023-05-14T01:15:12.052Z,7.18
2023-05-14T01:15:26.619Z,7.30
2023-05-14T01:15:40.010Z,4.65
2023-05-14T01:15:54.163Z,4.28
2023-05-14T01:16:12.168Z,4.82
2023-05-14T01:16:27.372Z,8.45
2023-05-14T01:16:40.740Z,9.93
2023-05-14T01:16:56.670Z,6.72
2023-05-14T01:17:11.749Z,7.78
2023-05-14T01:17:27.392Z,7.07
2023-05-14T01:17:42.898Z,6.45
2023-05-14T01:17:59.114Z,7.78
2023-05-14T01:18:13.905Z,6.47
2023-05-14T01:18:28.073Z,6.65
2023-05-14T01:18:43.014Z,8.80
2023-05-14T01:18:56.984Z,11.63
2023-05-14T01:19:21.305Z,9.98
2023-05-14T01:19:37.914Z,8.73
2023-05-14T01:19:51.321Z,9.73
2023-05-14T01:20:04.648Z,7.32
2023-05-14T01:20:17.415Z,6.47
2023-05-14T01:20:29.188Z,7.32
2023-05-14T01:20:42.509Z,6.45
2023-05-14T01:20:54.475Z,6.85
2023-05-14T01:21:18.047Z,6.15
2023-05-14T01:21:38.007Z,6.93
2023-05-14T01:21:49.751Z,7.63
2023-05-14T01:22:01.788Z,8.20
2023-05-14T01:22:13.626Z,6.35
2023-05-14T01:22:25.341Z,8.10
2023-05-14T01:22:37.287Z,7.95
2023-05-14T01:22:49.070Z,7.57
2023-05-14T01:23:00.862Z,9.68
2023-05-14T01:23:12.682Z,12.00
2023-05-14T01:23:24.391Z,10.43
2023-05-14T01:23:36.741Z,10.45
2023-05-14T01:23:48.515Z,12.85
2023-05-14T01:24:00.621Z,13.18
2023-05-14T01:24:12.426Z,9.63
2023-05-14T01:24:24.106Z,9.43
2023-05-14T01:24:36.002Z,9.30
2023-05-14T01:24:47.705Z,6.57
2023-05-14T01:24:59.464Z,6.25
2023-05-14T01:25:11.236Z,8.63
2023-05-14T01:25:23.183Z,9.25
2023-05-14T01:25:34.917Z,8.57
2023-05-14T01:25:46.832Z,6.38
2023-05-14T01:25:58.610Z,5.57
2023-05-14T01:26:10.352Z,10.68
2023-05-14T01:26:22.073Z,14.25
2023-05-14T01:26:34.044Z,13.57
2023-05-14T01:26:45.823Z,7.40
2023-05-14T01:27:03.829Z,7.97
2023-05-14T01:27:21.914Z,8.55
2023-05-14T01:27:38.674Z,6.13
2023-05-14T01:27:58.127Z,7.68
2023-05-14T01:28:15.644Z,8.35
2023-05-14T01:28:32.704Z,8.68
2023-05-14T01:28:45.277Z,8.23
2023-05-14T01:29:03.917Z,7.10
2023-05-14T01:29:21.355Z,6.70
2023-05-14T01:29:36.883Z,6.18
2023-05-14T01:29:53.473Z,6.57
2023-05-14T01:30:19.254Z,5.72
2023-05-14T01:30:35.665Z,6.38
2023-05-14T01:30:55.712Z,9.60
2023-05-14T01:31:12.410Z,8.20
2023-05-14T01:31:26.432Z,6.75
2023-05-14T01:31:41.543Z,8.25
2023-05-14T01:31:55.738Z,8.43
2023-05-14T01:32:09.756Z,5.95
2023-05-14T01:32:23.006Z,7.72
2023-05-14T01:32:35.888Z,7.85
2023-05-14T01:32:50.981Z,8.57
2023-05-14T01:33:06.173Z,7.20
2023-05-14T01:33:19.658Z,7.95
2023-05-14T01:33:35.064Z,9.20
2023-05-14T01:33:48.353Z,7.07
2023-05-14T01:34:02.042Z,5.93
2023-05-14T01:34:15.754Z,5.43
2023-05-14T01:34:29.762Z,5.63
2023-05-14T01:34:41.963Z,6.40
2023-05-14T01:34:57.086Z,5.63
2023-05-14T01:35:09.975Z,6.60
2023-05-14T01:35:23.675Z,8.32
2023-05-14T01:35:35.883Z,5.57
2023-05-14T01:35:48.843Z,4.28
2023-05-14T01:36:01.044Z,6.28
2023-05-14T01:36:13.309Z,6.72
2023-05-14T01:36:25.456Z,8.27
2023-05-14T01:36:40.254Z,4.60
2023-05-14T01:36:53.039Z,4.20
2023-05-14T01:37:06.394Z,7.15
2023-05-14T01:37:18.360Z,7.97
2023-05-14T01:37:31.054Z,7.85
2023-05-14T01:37:44.240Z,5.93
2023-05-14T01:38:00.870Z,5.15
2023-05-14T01:38:15.878Z,4.68
2023-05-14T01:38:28.349Z,7.50
2023-05-14T01:38:40.637Z,7.25
2023-05-14T01:38:53.682Z,10.80
2023-05-14T01:39:06.684Z,11.70
2023-05-14T01:39:19.584Z,7.45
2023-05-14T01:39:32.875Z,5.25
2023-05-14T01:39:45.752Z,6.10
2023-05-14T01:39:59.059Z,5.65
2023-05-14T01:40:11.369Z,6.53
2023-05-14T01:40:23.578Z,9.32
2023-05-14T01:40:36.632Z,9.32
2023-05-14T01:40:50.413Z,7.28
2023-05-14T01:41:03.250Z,6.40
2023-05-14T01:41:16.433Z,5.22
2023-05-14T01:41:29.568Z,4.38
2023-05-14T01:41:42.433Z,4.53
2023-05-14T01:41:55.059Z,4.22
2023-05-14T01:42:07.820Z,4.40
2023-05-14T01:42:19.931Z,5.05
2023-05-14T01:42:32.978Z,4.97
2023-05-14T01:42:45.631Z,6.72
2023-05-14T01:42:57.684Z,6.40
2023-05-14T01:43:09.875Z,5.50
2023-05-14T01:43:22.938Z,4.38
2023-05-14T01:43:35.471Z,4.53
2023-05-14T01:43:47.987Z,5.85
2023-05-14T01:43:59.803Z,6.03
2023-05-14T01:44:12.666Z,5.47
2023-05-14T01:44:24.915Z,4.65
2023-05-14T01:44:36.649Z,10.05
2023-05-14T01:44:48.387Z,10.05
2023-05-14T01:45:00.651Z,5.97
2023-05-14T01:45:12.620Z,6.13
2023-05-14T01:45:24.653Z,5.60
2023-05-14T01:45:37.133Z,5.90
2023-05-14T01:45:49.028Z,6.05
2023-05-14T01:46:00.836Z,5.78
2023-05-14T01:46:12.998Z,6.50
2023-05-14T01:46:24.835Z,6.55
2023-05-14T01:46:36.710Z,7.30
2023-05-14T01:46:48.514Z,6.75
2023-05-14T01:47:00.311Z,6.40
2023-05-14T01:47:11.992Z,7.45
2023-05-14T01:47:23.684Z,8.00
2023-05-14T01:47:35.400Z,7.75
2023-05-14T01:47:47.155Z,8.73
2023-05-14T01:47:59.056Z,8.07
2023-05-14T01:48:10.962Z,6.53
2023-05-14T01:48:22.922Z,6.22
2023-05-14T01:48:34.610Z,6.22
2023-05-14T01:48:46.385Z,6.10
2023-05-14T01:48:58.096Z,5.93
2023-05-14T01:49:09.829Z,6.07
2023-05-14T01:49:21.540Z,5.65
2023-05-14T01:49:33.296Z,8.32
2023-05-14T01:49:44.988Z,9.35
2023-05-14T01:49:56.727Z,9.00
2023-05-14T01:50:09.105Z,7.38
2023-05-14T01:50:21.207Z,6.70
2023-05-14T01:50:33.090Z,9.52
2023-05-14T01:50:44.811Z,9.32
2023-05-14T01:50:56.548Z,8.30
2023-05-14T01:51:08.304Z,8.10
2023-05-14T01:51:19.985Z,8.27
2023-05-14T01:51:31.863Z,6.82
2023-05-14T01:51:44.975Z,6.88
2023-05-14T01:51:56.671Z,7.05
2023-05-14T01:52:08.768Z,7.30
2023-05-14T01:52:20.459Z,8.07
2023-05-14T01:52:32.157Z,6.57
2023-05-14T01:52:43.980Z,4.80
2023-05-14T01:52:55.676Z,6.95
2023-05-14T01:53:07.484Z,6.82
2023-05-14T01:53:19.132Z,4.97
2023-05-14T01:53:30.914Z,5.57
2023-05-14T01:53:42.729Z,7.93
2023-05-14T01:53:54.427Z,8.07
2023-05-14T01:54:06.108Z,7.68
2023-05-14T01:54:17.798Z,5.00
2023-05-14T01:54:30.144Z,4.97
2023-05-14T01:54:41.854Z,6.13
2023-05-14T01:54:53.622Z,7.90
2023-05-14T01:55:06.517Z,6.20
2023-05-14T01:55:18.281Z,6.65
2023-05-14T01:55:29.998Z,16.15
2023-05-14T01:55:41.678Z,17.35
2023-05-14T01:55:53.384Z,16.08
2023-05-14T01:56:05.682Z,7.72
2023-05-14T01:56:18.476Z,6.75
2023-05-14T01:56:30.376Z,5.60
2023-05-14T01:56:42.145Z,4.82
2023-05-14T01:56:54.010Z,4.22
2023-05-14T01:57:05.738Z,4.28
2023-05-14T01:57:17.417Z,5.18
2023-05-14T01:57:29.145Z,8.05
2023-05-14T01:57:40.902Z,7.45
2023-05-14T01:57:52.884Z,6.68
2023-05-14T01:58:04.662Z,4.22
2023-05-14T01:58:16.507Z,4.97
2023-05-14T01:58:28.690Z,4.95
2023-05-14T01:58:40.422Z,4.65
2023-05-14T01:58:52.637Z,7.78
2023-05-14T01:59:04.342Z,7.25
2023-05-14T01:59:16.076Z,7.22
2023-05-14T01:59:27.776Z,8.50
2023-05-14T01:59:39.532Z,9.93
2023-05-14T01:59:51.229Z,9.25
2023-05-14T02:00:03.580Z,9.20
2023-05-14T02:00:25.968Z,9.30
2023-05-14T02:00:37.798Z,7.30
2023-05-14T02:00:49.457Z,5.70
2023-05-14T02:01:01.218Z,4.75
2023-05-14T02:01:13.035Z,7.30
2023-05-14T02:01:24.822Z,7.35
2023-05-14T02:01:36.529Z,6.68
2023-05-14T02:01:48.379Z,6.57
2023-05-14T02:02:00.210Z,6.35
2023-05-14T02:02:12.015Z,5.00
2023-05-14T02:02:23.719Z,4.18
2023-05-14T02:02:35.488Z,4.80
2023-05-14T02:02:47.280Z,6.47
2023-05-14T02:02:59.033Z,6.63
2023-05-14T02:03:10.899Z,3.80
2023-05-14T02:03:22.635Z,4.65
2023-05-14T02:03:34.657Z,5.65
2023-05-14T02:03:46.504Z,6.93
2023-05-14T02:03:58.245Z,8.65
2023-05-14T02:04:10.015Z,8.23
2023-05-14T02:04:21.894Z,6.68
2023-05-14T02:04:33.632Z,7.15
2023-05-14T02:04:45.924Z,8.43
2023-05-14T02:04:57.620Z,9.45
2023-05-14T02:05:10.992Z,8.32
2023-05-14T02:05:22.706Z,7.80
2023-05-14T02:05:34.503Z,7.30
2023-05-14T02:05:46.192Z,7.45
2023-05-14T02:05:57.871Z,5.63
2023-05-14T02:06:09.564Z,5.28
2023-05-14T02:06:21.205Z,7.88
2023-05-14T02:06:33.446Z,6.93
2023-05-14T02:06:46.458Z,6.55
2023-05-14T02:06:58.114Z,5.68
2023-05-14T02:07:09.810Z,6.78
2023-05-14T02:07:21.531Z,7.28
2023-05-14T02:07:33.258Z,8.05
2023-05-14T02:07:45.021Z,7.80
2023-05-14T02:07:56.757Z,4.88
2023-05-14T02:08:08.575Z,4.53
2023-05-14T02:08:20.229Z,6.75
2023-05-14T02:08:33.074Z,8.65
2023-05-14T02:08:44.773Z,8.05
2023-05-14T02:08:56.451Z,7.00
2023-05-14T02:09:08.217Z,6.50
2023-05-14T02:09:19.911Z,6.18
2023-05-14T02:09:31.571Z,6.78
2023-05-14T02:09:43.441Z,5.07
2023-05-14T02:09:55.120Z,4.75
2023-05-14T02:10:08.272Z,4.35
2023-05-14T02:10:20.134Z,4.32
2023-05-14T02:10:34.747Z,7.55
2023-05-14T02:10:46.499Z,12.02
2023-05-14T02:10:58.248Z,10.52
2023-05-14T02:11:11.033Z,7.72
2023-05-14T02:11:22.704Z,7.03
2023-05-14T02:11:34.475Z,5.78
2023-05-14T02:11:46.323Z,4.70
2023-05-14T02:11:58.000Z,6.43
2023-05-14T02:12:10.208Z,8.65
2023-05-14T02:12:21.861Z,8.60
2023-05-14T02:12:33.743Z,6.60
2023-05-14T02:12:45.449Z,5.22
2023-05-14T02:12:57.241Z,4.57
2023-05-14T02:13:08.920Z,4.10
2023-05-14T02:13:20.670Z,4.32
2023-05-14T02:13:32.356Z,4.32
2023-05-14T02:13:44.052Z,3.97
2023-05-14T02:13:55.730Z,4.30
2023-05-14T02:14:07.365Z,5.20
2023-05-14T02:14:19.062Z,5.47
2023-05-14T02:14:30.778Z,6.55
2023-05-14T02:14:42.503Z,7.32
2023-05-14T02:14:54.193Z,7.13
2023-05-14T02:15:06.980Z,4.75
2023-05-14T02:15:18.822Z,4.47
2023-05-14T02:15:30.510Z,5.55
2023-05-14T02:15:42.285Z,6.50
2023-05-14T02:15:54.174Z,4.88
2023-05-14T02:16:06.616Z,5.10
2023-05-14T02:16:19.022Z,4.13
2023-05-14T02:16:30.745Z,4.60
2023-05-14T02:16:42.465Z,3.85
2023-05-14T02:16:54.279Z,4.45
2023-05-14T02:17:05.996Z,4.50
2023-05-14T02:17:17.919Z,6.13
2023-05-14T02:17:29.690Z,5.45
2023-05-14T02:17:41.487Z,7.22
2023-05-14T02:17:55.927Z,6.68
2023-05-14T02:18:07.716Z,6.15
2023-05-14T02:18:19.470Z,6.15
2023-05-14T02:18:31.222Z,5.22
2023-05-14T02:18:43.016Z,5.75
2023-05-14T02:18:54.715Z,5.93
2023-05-14T02:19:06.457Z,6.32
2023-05-14T02:19:18.224Z,4.97
2023-05-14T02:19:30.869Z,4.80
2023-05-14T02:19:42.825Z,5.45
2023-05-14T02:19:54.566Z,5.85
2023-05-14T02:20:07.597Z,4.63
2023-05-14T02:20:19.517Z,5.22
2023-05-14T02:20:31.190Z,5.55
2023-05-14T02:20:42.906Z,9.82
2023-05-14T02:20:54.736Z,9.55
2023-05-14T02:21:07.207Z,7.15
2023-05-14T02:21:18.872Z,8.05
2023-05-14T02:21:30.577Z,8.95
2023-05-14T02:21:42.267Z,7.57
2023-05-14T02:21:55.506Z,6.10
2023-05-14T02:22:07.206Z,4.80
2023-05-14T02:22:19.079Z,4.63
2023-05-14T02:22:31.158Z,5.25
2023-05-14T02:22:42.878Z,4.43
2023-05-14T02:22:54.616Z,4.05
2023-05-14T02:23:06.302Z,4.85
2023-05-14T02:23:18.181Z,4.78
2023-05-14T02:23:59.525Z,7.63
2023-05-14T02:24:11.218Z,5.68
2023-05-14T02:24:22.903Z,4.43
2023-05-14T02:24:34.584Z,5.03
2023-05-14T02:24:46.313Z,7.05
2023-05-14T02:24:58.013Z,12.00
2023-05-14T02:25:10.380Z,11.88
2023-05-14T02:25:22.162Z,11.10
2023-05-14T02:25:33.896Z,6.43
2023-05-14T02:25:45.577Z,4.50
2023-05-14T02:25:57.255Z,4.05
2023-05-14T02:26:09.371Z,5.82
2023-05-14T02:26:21.044Z,6.68
2023-05-14T02:26:32.767Z,6.00
2023-05-14T02:26:44.507Z,4.22
2023-05-14T02:26:56.195Z,4.00
2023-05-14T02:27:08.217Z,5.72
2023-05-14T02:27:19.946Z,6.47
2023-05-14T02:27:32.800Z,6.10
2023-05-14T02:27:44.481Z,5.10
2023-05-14T02:27:56.634Z,6.07
2023-05-14T02:28:08.373Z,5.85
2023-05-14T02:28:20.105Z,5.25
2023-05-14T02:28:31.790Z,4.32
2023-05-14T02:28:43.514Z,6.00
2023-05-14T02:28:57.928Z,6.30
2023-05-14T02:29:09.792Z,5.68
2023-05-14T02:29:21.439Z,4.63
2023-05-14T02:29:33.163Z,5.00
2023-05-14T02:29:44.929Z,5.65
2023-05-14T02:29:56.680Z,6.47
2023-05-14T02:30:09.660Z,7.72
2023-05-14T02:30:22.201Z,7.47
2023-05-14T02:30:33.990Z,6.07
2023-05-14T02:30:45.688Z,8.38
2023-05-14T02:30:59.003Z,7.95
2023-05-14T02:31:10.781Z,8.20
2023-05-14T02:31:22.575Z,5.50
2023-05-14T02:31:35.155Z,6.97
2023-05-14T02:31:46.887Z,7.53
2023-05-14T02:31:58.721Z,5.72
2023-05-14T02:32:10.705Z,3.17
2023-05-14T02:32:22.506Z,4.53
2023-05-14T02:32:34.451Z,5.18
2023-05-14T02:32:46.479Z,5.53
2023-05-14T02:32:58.317Z,4.03
2023-05-14T02:33:10.268Z,4.38
2023-05-14T02:33:22.189Z,4.97
2023-05-14T02:33:34.084Z,4.60
2023-05-14T02:33:45.875Z,6.95
2023-05-14T02:33:57.562Z,8.63
2023-05-14T02:34:09.857Z,9.52
2023-05-14T02:34:21.720Z,7.03
2023-05-14T02:34:33.705Z,6.07
2023-05-14T02:34:45.382Z,4.50
2023-05-14T02:34:57.090Z,3.78
2023-05-14T02:35:09.721Z,4.88
2023-05-14T02:35:22.323Z,6.40
2023-05-14T02:35:34.020Z,7.47
2023-05-14T02:35:45.710Z,6.88
2023-05-14T02:35:58.495Z,5.75
2023-05-14T02:36:10.174Z,4.68
2023-05-14T02:36:21.877Z,4.97
2023-05-14T02:36:33.571Z,4.10
2023-05-14T02:36:45.294Z,5.20
2023-05-14T02:36:58.325Z,6.10
2023-05-14T02:37:10.033Z,7.60
2023-05-14T02:37:22.180Z,5.35
2023-05-14T02:37:34.048Z,5.38
2023-05-14T02:37:45.791Z,5.70
2023-05-14T02:37:57.575Z,5.93
2023-05-14T02:38:09.282Z,5.65
2023-05-14T02:38:21.043Z,6.93
2023-05-14T02:38:33.815Z,7.10
2023-05-14T02:38:45.518Z,4.20
2023-05-14T02:38:59.420Z,3.70
2023-05-14T02:39:11.168Z,6.72
2023-05-14T02:39:22.996Z,10.18
2023-05-14T02:39:34.762Z,9.90
2023-05-14T02:39:46.460Z,8.15
2023-05-14T02:40:00.618Z,5.03
2023-05-14T02:40:12.513Z,4.45
2023-05-14T02:40:24.570Z,6.57
2023-05-14T02:40:37.084Z,5.80
2023-05-14T02:40:48.876Z,5.22
2023-05-14T02:41:01.173Z,7.47
2023-05-14T02:41:12.841Z,8.18
2023-05-14T02:41:24.528Z,8.80
2023-05-14T02:41:37.138Z,5.85
2023-05-14T02:41:48.814Z,4.50
2023-05-14T02:42:02.075Z,5.25
2023-05-14T02:42:13.744Z,5.22
2023-05-14T02:42:25.536Z,4.07
2023-05-14T02:42:37.262Z,3.92
2023-05-14T02:42:48.930Z,5.95
2023-05-14T02:43:00.745Z,6.03
2023-05-14T02:43:12.413Z,6.05
2023-05-14T02:43:24.082Z,5.97
2023-05-14T02:43:37.085Z,12.43
2023-05-14T02:43:48.797Z,13.00
2023-05-14T02:44:00.521Z,8.77
2023-05-14T02:44:12.267Z,4.32
2023-05-14T02:44:24.043Z,4.13
2023-05-14T02:44:35.914Z,4.10
2023-05-14T02:44:47.668Z,4.55
2023-05-14T02:44:59.336Z,6.72
2023-05-14T02:45:11.779Z,6.78
2023-05-14T02:45:24.908Z,6.35
2023-05-14T02:45:36.664Z,4.07
2023-05-14T02:45:48.417Z,3.90
2023-05-14T02:46:00.143Z,5.45
2023-05-14T02:46:11.783Z,6.45
2023-05-14T02:46:23.472Z,7.85
2023-05-14T02:46:35.405Z,7.50
2023-05-14T02:46:47.828Z,5.35
2023-05-14T02:46:59.776Z,6.28
2023-05-14T02:47:11.653Z,6.50
2023-05-14T02:47:23.458Z,4.97
2023-05-14T02:47:37.757Z,4.20